Time;durP1;ratioP1;P1;durP2;ratioP2;P2;SDS_P1;SDS_P2;PMS_P1;PMS_P2;Temp;Humidity;BMP_temperature;BMP_pressure;BME280_temperature;BME280_humidity;BME280_pressure;Samples;Min_cycle;Max_cycle;Signal;HPM_P1;HPM_P2
2023/06/29 00:02:24;;;;;;;6.50;6.00;;;;;;;19.72;81.52;100780.97;5034115;28;20261;-82
2023/06/29 00:04:51;;;;;;;7.53;6.50;;;;;;;19.72;81.35;100790.69;5033737;28;20627;-80
2023/06/29 00:07:17;;;;;;;5.90;5.33;;;;;;;19.70;81.33;100781.94;5033991;28;20227;-80
2023/06/29 00:09:44;;;;;;;6.83;6.33;;;;;;;19.69;81.74;100783.75;5034668;28;20237;-80
2023/06/29 00:12:10;;;;;;;6.43;6.00;;;;;;;19.68;81.83;100778.50;5033978;28;20301;-81
2023/06/29 00:14:37;;;;;;;7.03;6.43;;;;;;;19.69;81.92;100781.09;5034062;28;20318;-80
2023/06/29 00:17:04;;;;;;;6.90;6.40;;;;;;;19.68;81.81;100775.88;5034195;28;20635;-81
2023/06/29 00:19:31;;;;;;;6.87;6.27;;;;;;;19.65;81.95;100772.44;5034008;28;20240;-80
2023/06/29 00:21:58;;;;;;;6.90;6.50;;;;;;;19.64;82.04;100777.81;5034005;28;20257;-80
2023/06/29 00:24:26;;;;;;;6.43;6.13;;;;;;;19.64;82.40;100767.22;5033780;28;20233;-79
2023/06/29 00:26:52;;;;;;;6.43;5.93;;;;;;;19.64;82.35;100764.56;5033258;28;20202;-80
2023/06/29 00:29:18;;;;;;;6.33;5.83;;;;;;;19.63;82.64;100758.41;5033862;28;20252;-82
2023/06/29 00:31:44;;;;;;;6.37;5.80;;;;;;;19.63;82.71;100769.00;5034186;28;20233;-80
2023/06/29 00:34:11;;;;;;;6.83;6.10;;;;;;;19.60;82.70;100758.59;5033952;28;20234;-80
2023/06/29 00:36:40;;;;;;;5.70;5.30;;;;;;;19.60;83.20;100747.13;5033769;28;20233;-82
2023/06/29 00:39:06;;;;;;;6.67;6.27;;;;;;;19.59;82.64;100770.13;5033917;28;20287;-80
2023/06/29 00:41:33;;;;;;;5.97;5.57;;;;;;;19.59;82.65;100763.97;5033480;28;20250;-81
2023/06/29 00:44:00;;;;;;;6.00;5.63;;;;;;;19.58;82.63;100760.47;5033276;28;20750;-81
2023/06/29 00:46:26;;;;;;;6.67;6.23;;;;;;;19.59;82.32;100767.47;5033446;28;20774;-81
2023/06/29 00:48:53;;;;;;;6.33;5.87;;;;;;;19.57;82.85;100753.44;5032366;28;20235;-80
2023/06/29 00:51:19;;;;;;;6.40;6.00;;;;;;;19.56;82.57;100750.88;5033353;28;20710;-81
2023/06/29 00:53:47;;;;;;;6.27;5.97;;;;;;;19.57;82.91;100749.94;5033398;28;20206;-81
2023/06/29 00:56:13;;;;;;;7.00;6.50;;;;;;;19.57;83.31;100744.66;5033445;28;20680;-81
2023/06/29 00:58:40;;;;;;;6.53;6.23;;;;;;;19.55;83.53;100747.38;5031920;28;20280;-81
2023/06/29 01:01:06;;;;;;;7.43;7.03;;;;;;;19.54;83.35;100735.06;5013066;28;20226;-81
2023/06/29 01:03:33;;;;;;;6.53;6.03;;;;;;;19.54;83.34;100728.91;5029757;28;20233;-80
2023/06/29 01:06:04;;;;;;;7.17;6.77;;;;;;;19.54;83.67;100727.09;5033191;28;20287;-81
2023/06/29 01:08:36;;;;;;;7.40;6.70;;;;;;;19.53;83.63;100727.22;5033287;28;20211;-81
2023/06/29 01:11:04;;;;;;;6.90;6.40;;;;;;;19.52;83.49;100733.44;5033094;28;20226;-81
2023/06/29 01:13:33;;;;;;;6.70;6.37;;;;;;;19.51;83.75;100722.00;5032994;28;20226;-81
2023/06/29 01:16:01;;;;;;;7.13;6.53;;;;;;;19.49;83.26;100730.97;5032809;28;20584;-80
2023/06/29 01:18:30;;;;;;;7.17;6.77;;;;;;;19.49;83.62;100728.31;5032836;28;20210;-80
2023/06/29 01:20:57;;;;;;;7.03;6.63;;;;;;;19.47;84.04;100714.28;5033362;28;20228;-81
2023/06/29 01:23:26;;;;;;;7.47;6.97;;;;;;;19.47;83.69;100712.50;5032757;28;20237;-80
2023/06/29 01:25:55;;;;;;;7.03;6.60;;;;;;;19.47;83.52;100715.13;5032706;28;20230;-80
2023/06/29 01:28:21;;;;;;;7.50;6.87;;;;;;;19.45;83.63;100709.91;5032378;28;20213;-81
2023/06/29 01:30:49;;;;;;;7.33;6.83;;;;;;;19.43;84.36;100697.72;5032992;28;20704;-80
2023/06/29 01:33:17;;;;;;;7.20;6.80;;;;;;;19.36;84.74;100699.78;5033006;28;20627;-81
2023/06/29 01:35:44;;;;;;;8.77;7.20;;;;;;;19.35;84.48;100684.88;5032623;28;20214;-80
2023/06/29 01:38:15;;;;;;;7.40;6.90;;;;;;;19.37;84.79;100680.34;5032694;28;20229;-81
2023/06/29 01:40:45;;;;;;;6.73;6.33;;;;;;;19.37;84.81;100687.44;5032723;28;20254;-81
2023/06/29 01:43:13;;;;;;;6.50;6.00;;;;;;;19.36;84.69;100688.34;5032228;28;20243;-82
2023/06/29 01:45:41;;;;;;;6.90;6.40;;;;;;;19.37;85.03;100683.00;5033267;28;20249;-82
2023/06/29 01:48:07;;;;;;;6.87;6.40;;;;;;;19.36;85.11;100683.06;5033720;28;20242;-82
2023/06/29 01:50:34;;;;;;;6.90;6.40;;;;;;;19.35;85.11;100679.56;5042539;28;20233;-81
2023/06/29 01:53:00;;;;;;;6.30;5.90;;;;;;;19.36;84.43;100689.19;5026054;28;20234;-82
2023/06/29 01:55:29;;;;;;;6.80;6.37;;;;;;;19.36;83.77;100699.78;5033713;28;20221;-81
2023/06/29 01:57:55;;;;;;;6.73;6.37;;;;;;;19.38;83.48;100712.97;5033447;28;20210;-82
2023/06/29 02:00:23;;;;;;;7.40;6.90;;;;;;;19.36;84.26;100702.44;5042019;28;20236;-81
2023/06/29 02:02:49;;;;;;;6.63;6.23;;;;;;;19.34;84.77;100679.63;5020986;28;20253;-81
2023/06/29 02:05:16;;;;;;;7.43;6.83;;;;;;;19.35;84.98;100678.72;5031319;28;20253;-81
2023/06/29 02:07:42;;;;;;;7.23;6.83;;;;;;;19.34;85.12;100672.53;5037686;28;20239;-81
2023/06/29 02:10:09;;;;;;;7.17;6.50;;;;;;;19.32;85.28;100663.81;5037117;28;20230;-81
2023/06/29 02:12:35;;;;;;;7.00;6.50;;;;;;;19.31;85.62;100667.44;5036925;28;20237;-81
2023/06/29 02:15:02;;;;;;;7.20;6.80;;;;;;;19.28;85.46;100651.69;5036580;28;20250;-82
2023/06/29 02:17:30;;;;;;;7.50;6.90;;;;;;;19.30;85.77;100648.97;5037977;28;20669;-82
2023/06/29 02:19:56;;;;;;;7.17;6.67;;;;;;;19.29;85.37;100648.13;5036150;28;20241;-81
2023/06/29 02:22:22;;;;;;;8.40;7.70;;;;;;;19.28;85.11;100659.63;5036171;28;20716;-82
2023/06/29 02:24:49;;;;;;;7.90;7.33;;;;;;;19.28;83.99;100675.50;5016688;28;20262;-81
2023/06/29 02:27:15;;;;;;;7.57;7.07;;;;;;;19.21;83.86;100700.59;5030319;28;20241;-81
2023/06/29 02:29:41;;;;;;;7.77;7.27;;;;;;;19.21;83.17;100708.53;5036868;28;20236;-82
2023/06/29 02:32:08;;;;;;;7.20;6.77;;;;;;;19.22;82.78;100734.06;5037243;28;20230;-82
2023/06/29 02:34:35;;;;;;;6.80;6.30;;;;;;;19.24;83.95;100700.44;5036936;28;20264;-81
2023/06/29 02:37:02;;;;;;;6.57;6.17;;;;;;;19.25;84.46;100691.56;5029878;28;20676;-80
2023/06/29 02:39:28;;;;;;;7.50;7.00;;;;;;;19.24;84.04;100701.28;5037808;28;20233;-81
2023/06/29 02:41:54;;;;;;;7.37;6.83;;;;;;;19.24;84.38;100697.78;5043252;28;20271;-81
2023/06/29 02:44:21;;;;;;;6.97;6.57;;;;;;;19.26;84.42;100680.03;5031192;28;20229;-79
2023/06/29 02:46:47;;;;;;;8.27;7.50;;;;;;;19.27;84.35;100683.56;5036901;28;20212;-81
2023/06/29 02:49:14;;;;;;;7.43;6.93;;;;;;;19.25;85.01;100668.59;5036965;28;20210;-81
2023/06/29 02:51:42;;;;;;;7.13;6.73;;;;;;;19.24;84.83;100669.50;5037366;28;20194;-82
2023/06/29 02:54:08;;;;;;;6.97;6.47;;;;;;;19.24;85.27;100656.28;5036816;28;20656;-82
2023/06/29 02:56:34;;;;;;;7.63;7.03;;;;;;;19.21;85.41;100645.88;5036545;28;20229;-80
2023/06/29 02:59:01;;;;;;;6.83;6.43;;;;;;;19.21;84.78;100660.91;5036055;28;20237;-82
2023/06/29 03:01:27;;;;;;;7.03;6.57;;;;;;;19.23;85.19;100659.03;5036751;28;20710;-82
2023/06/29 03:03:53;;;;;;;7.20;6.70;;;;;;;19.20;85.67;100646.78;5036164;28;20272;-82
2023/06/29 03:06:19;;;;;;;8.20;7.27;;;;;;;19.22;85.67;100644.06;5036478;28;20272;-82
2023/06/29 03:08:48;;;;;;;7.40;6.80;;;;;;;19.22;86.22;100629.03;5036591;28;20233;-82
2023/06/29 03:11:14;;;;;;;6.80;6.30;;;;;;;19.21;86.07;100637.94;5036158;28;20234;-82
2023/06/29 03:13:41;;;;;;;7.40;6.90;;;;;;;19.21;86.12;100630.00;5036003;28;20226;-81
2023/06/29 03:16:09;;;;;;;6.90;6.50;;;;;;;19.19;86.50;100623.06;5035767;28;20263;-82
2023/06/29 03:18:35;;;;;;;7.00;6.60;;;;;;;19.18;86.38;100624.84;5036256;28;20673;-82
2023/06/29 03:21:02;;;;;;;6.77;6.37;;;;;;;19.17;86.80;100620.50;5036262;28;20742;-81
2023/06/29 03:23:28;;;;;;;6.83;6.37;;;;;;;19.19;87.23;100613.34;5036464;28;20574;-81
2023/06/29 03:25:56;;;;;;;6.50;6.10;;;;;;;19.20;87.08;100607.09;5036195;28;20273;-82
2023/06/29 03:28:22;;;;;;;7.03;6.63;;;;;;;19.20;86.95;100606.25;5036015;28;20230;-82
2023/06/29 03:30:49;;;;;;;7.10;6.70;;;;;;;19.19;87.35;100607.19;5036221;28;20638;-82
2023/06/29 03:33:15;;;;;;;6.60;6.20;;;;;;;19.19;87.50;100604.56;5036535;28;20221;-82
2023/06/29 03:35:42;;;;;;;6.83;6.43;;;;;;;19.19;87.30;100608.03;5036105;28;20256;-81
2023/06/29 03:38:09;;;;;;;6.83;6.33;;;;;;;19.19;87.59;100604.56;5036217;28;20198;-82
2023/06/29 03:40:35;;;;;;;7.17;6.67;;;;;;;19.16;87.86;100594.97;5036420;28;20255;-82
2023/06/29 03:43:03;;;;;;;6.83;6.40;;;;;;;19.17;88.01;100607.28;5035987;28;20263;-82
2023/06/29 03:45:30;;;;;;;7.17;6.77;;;;;;;19.18;87.87;100597.53;5036240;28;20256;-82
2023/06/29 03:47:56;;;;;;;7.40;6.80;;;;;;;19.20;88.01;100601.81;5035861;28;20668;-81
2023/06/29 03:50:22;;;;;;;7.00;6.50;;;;;;;19.20;88.04;100590.38;5036597;28;20825;-82
2023/06/29 03:52:49;;;;;;;6.80;6.30;;;;;;;19.20;88.15;100595.66;5035910;28;20197;-82
2023/06/29 03:55:16;;;;;;;6.47;5.97;;;;;;;19.20;87.69;100596.50;5036158;28;20222;-82
2023/06/29 03:57:42;;;;;;;6.53;6.13;;;;;;;19.20;87.04;100615.03;5035678;28;20282;-80
2023/06/29 04:00:11;;;;;;;6.97;6.37;;;;;;;19.21;87.28;100615.91;5023959;28;20237;-81
2023/06/29 04:02:37;;;;;;;7.77;7.27;;;;;;;19.22;87.51;100601.72;5031254;28;20272;-82
2023/06/29 04:05:04;;;;;;;7.10;6.57;;;;;;;19.21;87.65;100602.69;5034906;28;20228;-81
2023/06/29 04:07:30;;;;;;;6.50;6.10;;;;;;;19.23;88.22;100600.81;5035849;28;20207;-81
2023/06/29 04:09:56;;;;;;;6.67;6.17;;;;;;;19.23;88.35;100587.56;5035740;28;20229;-81
2023/06/29 04:12:23;;;;;;;6.73;6.10;;;;;;;19.20;88.82;100574.50;5035584;28;20221;-82
2023/06/29 04:14:49;;;;;;;7.33;6.90;;;;;;;19.21;89.35;100563.81;5034936;28;20226;-82
2023/06/29 04:17:17;;;;;;;6.73;6.23;;;;;;;19.22;89.50;100565.53;5034909;28;20255;-82
2023/06/29 04:19:43;;;;;;;7.33;6.63;;;;;;;19.24;89.73;100554.84;5035108;28;20714;-82
2023/06/29 04:22:09;;;;;;;7.13;6.53;;;;;;;19.24;89.64;100555.72;5034175;28;20257;-81
2023/06/29 04:24:36;;;;;;;7.07;6.57;;;;;;;19.22;89.56;100552.28;5034282;28;20295;-82
2023/06/29 04:27:02;;;;;;;6.53;6.13;;;;;;;19.25;89.50;100552.13;5055991;22;20236;-79
2023/06/29 04:29:28;;;;;;;6.40;5.97;;;;;;;19.29;89.75;100560.78;5045553;28;20213;-81
2023/06/29 04:31:55;;;;;;;7.37;6.77;;;;;;;19.28;89.15;100560.84;5055945;28;20209;-81
2023/06/29 04:34:22;;;;;;;7.17;6.70;;;;;;;19.30;88.35;100581.00;5049427;28;20673;-78
2023/06/29 04:36:49;;;;;;;6.90;6.40;;;;;;;19.31;88.52;100595.97;5057895;28;20229;-81
2023/06/29 04:39:16;;;;;;;6.13;5.63;;;;;;;19.33;88.77;100596.72;5058177;28;20227;-81
2023/06/29 04:41:42;;;;;;;6.30;5.80;;;;;;;19.37;88.67;100598.28;5057387;28;20213;-82
2023/06/29 04:44:09;;;;;;;6.47;6.07;;;;;;;19.40;89.17;100578.72;5058165;28;20209;-81
2023/06/29 04:46:37;;;;;;;6.90;6.50;;;;;;;19.41;89.54;100568.06;5056664;28;20205;-80
2023/06/29 04:49:06;;;;;;;6.43;5.97;;;;;;;19.41;89.42;100567.22;5047620;28;20204;-80
2023/06/29 04:51:34;;;;;;;7.30;6.70;;;;;;;19.43;89.14;100573.28;5057536;28;20209;-80
2023/06/29 04:54:00;;;;;;;7.83;6.83;;;;;;;19.43;88.54;100583.88;5056749;28;20201;-79
2023/06/29 04:56:27;;;;;;;7.03;6.63;;;;;;;19.50;88.71;100587.88;5054958;28;20278;-78
2023/06/29 04:58:53;;;;;;;7.13;6.63;;;;;;;19.46;89.27;100578.38;5058466;28;20229;-81
2023/06/29 05:01:20;;;;;;;6.87;6.47;;;;;;;19.47;89.17;100574.81;5058125;28;20227;-81
2023/06/29 05:03:46;;;;;;;7.13;6.73;;;;;;;19.52;89.47;100571.91;5058233;28;20218;-81
2023/06/29 05:06:12;;;;;;;6.07;5.67;;;;;;;19.55;89.42;100566.47;5059253;28;20207;-80
2023/06/29 05:08:40;;;;;;;6.57;6.07;;;;;;;19.58;89.43;100563.63;5063820;28;20232;-80
2023/06/29 05:11:06;;;;;;;6.93;6.53;;;;;;;19.62;89.88;100574.00;5063140;28;20204;-80
2023/06/29 05:13:36;;;;;;;8.63;6.97;;;;;;;19.66;89.35;100558.75;5061446;28;20197;-80
2023/06/29 05:16:02;;;;;;;6.37;5.90;;;;;;;19.70;89.31;100565.63;5047127;28;20618;-80
2023/06/29 05:18:29;;;;;;;6.60;6.07;;;;;;;19.72;87.63;100600.88;5053457;28;20253;-80
2023/06/29 05:20:57;;;;;;;8.33;7.77;;;;;;;19.75;86.83;100613.94;5053383;28;20222;-80
2023/06/29 05:23:23;;;;;;;7.57;7.07;;;;;;;19.80;87.77;100603.94;5044326;28;20225;-81
2023/06/29 05:25:51;;;;;;;6.27;5.87;;;;;;;19.84;88.12;100594.88;5051135;28;20248;-81
2023/06/29 05:28:17;;;;;;;6.60;6.20;;;;;;;19.87;87.93;100611.56;5052964;28;20229;-80
2023/06/29 05:30:44;;;;;;;6.40;5.80;;;;;;;19.93;89.24;100569.66;5054042;28;20627;-82
2023/06/29 05:33:10;;;;;;;8.10;7.30;;;;;;;19.91;87.69;100587.44;5045779;28;20225;-81
2023/06/29 05:35:36;;;;;;;9.80;5.97;;;;;;;19.95;88.83;100574.88;5053148;28;20240;-80
2023/06/29 05:38:03;;;;;;;7.30;6.70;;;;;;;19.95;89.63;100548.38;5052691;28;20236;-81
2023/06/29 05:40:29;;;;;;;7.93;7.23;;;;;;;19.92;87.79;100567.97;5053597;28;20627;-81
2023/06/29 05:42:57;;;;;;;6.27;5.87;;;;;;;19.95;88.14;100570.44;5053182;28;20749;-82
2023/06/29 05:45:23;;;;;;;6.23;5.83;;;;;;;19.94;89.08;100552.84;5053284;28;20278;-81
2023/06/29 05:47:50;;;;;;;8.40;7.60;;;;;;;19.95;88.28;100564.28;5052370;28;20307;-81
2023/06/29 05:50:16;;;;;;;7.83;7.23;;;;;;;19.83;84.74;100634.72;5052700;28;20205;-81
2023/06/29 05:52:43;;;;;;;8.50;7.80;;;;;;;19.89;85.12;100658.22;5052023;28;20208;-80
2023/06/29 05:55:10;;;;;;;7.83;7.20;;;;;;;19.94;86.31;100642.06;5052982;28;20202;-81
2023/06/29 05:57:36;;;;;;;8.47;7.70;;;;;;;20.00;86.50;100625.84;5051911;28;20229;-79
2023/06/29 06:00:09;;;;;;;8.30;7.50;;;;;;;20.03;85.60;100637.09;5044864;28;20287;-80
2023/06/29 06:02:36;;;;;;;7.97;7.23;;;;;;;20.04;85.64;100633.53;5053408;28;20947;-80
2023/06/29 06:05:02;;;;;;;9.03;8.23;;;;;;;20.10;83.90;100665.91;5051653;28;20217;-80
2023/06/29 06:07:29;;;;;;;7.87;7.17;;;;;;;20.10;83.74;100688.00;5051902;28;20227;-80
2023/06/29 06:09:55;;;;;;;8.50;7.80;;;;;;;19.99;81.25;100740.72;5052807;28;20205;-83
2023/06/29 06:12:22;;;;;;;8.83;8.03;;;;;;;20.12;81.41;100754.16;5046544;28;20220;-81
2023/06/29 06:14:48;;;;;;;7.33;6.53;;;;;;;20.24;81.52;100746.41;5052464;28;20227;-80
2023/06/29 06:17:16;;;;;;;8.40;7.60;;;;;;;20.30;81.53;100752.31;5045753;28;20249;-80
2023/06/29 06:19:43;;;;;;;8.17;7.40;;;;;;;20.34;82.39;100740.59;5052196;28;20255;-81
2023/06/29 06:22:09;;;;;;;8.23;7.63;;;;;;;20.47;82.38;100727.50;5051628;28;20635;-81
2023/06/29 06:24:35;;;;;;;9.33;7.03;;;;;;;20.34;79.92;100764.47;5052997;28;20204;-81
2023/06/29 06:27:02;;;;;;;8.27;7.47;;;;;;;20.48;79.56;100777.81;5052563;28;20268;-82
2023/06/29 06:29:28;;;;;;;9.10;7.77;;;;;;;20.41;79.44;100777.28;5053471;28;20575;-81
2023/06/29 06:31:55;;;;;;;8.60;7.63;;;;;;;20.44;79.30;100786.88;5052634;28;20686;-82
2023/06/29 06:34:23;;;;;;;7.77;7.07;;;;;;;20.39;79.93;100771.22;5052963;28;20224;-78
2023/06/29 06:36:49;;;;;;;8.03;7.30;;;;;;;20.50;79.51;100761.84;5051922;28;20248;-80
2023/06/29 06:39:16;;;;;;;7.80;6.60;;;;;;;20.60;80.37;100757.75;5052308;28;20216;-80
2023/06/29 06:41:42;;;;;;;7.27;6.67;;;;;;;20.69;81.63;100717.44;5045043;28;20205;-81
2023/06/29 06:44:09;;;;;;;8.53;7.57;;;;;;;20.71;79.56;100747.38;5056779;28;20262;-80
2023/06/29 06:46:35;;;;;;;8.20;6.43;;;;;;;20.87;79.34;100770.41;5059735;28;20593;-81
2023/06/29 06:49:01;;;;;;;12.93;8.00;;;;;;;20.95;80.30;100728.34;5061860;28;20209;-80
2023/06/29 06:51:29;;;;;;;10.30;6.40;;;;;;;21.02;78.87;100774.84;5061514;28;20198;-81
2023/06/29 06:53:56;;;;;;;10.47;5.57;;;;;;;20.82;76.51;100843.16;5052604;28;20208;-80
2023/06/29 06:56:23;;;;;;;6.10;5.50;;;;;;;20.92;76.95;100851.47;5061760;28;20202;-81
2023/06/29 06:58:50;;;;;;;6.87;6.23;;;;;;;20.88;75.45;100857.03;5062133;28;20224;-81
2023/06/29 07:01:22;;;;;;;6.67;5.23;;;;;;;21.03;75.57;100882.75;4360674;28;10000642;-80
2023/06/29 07:03:48;;;;;;;6.10;5.43;;;;;;;21.01;76.07;100858.94;5050382;28;20229;-81
2023/06/29 07:06:15;;;;;;;6.10;5.50;;;;;;;21.11;75.84;100869.88;5050340;28;20619;-81
2023/06/29 07:08:42;;;;;;;5.67;5.17;;;;;;;21.03;74.33;100906.63;5059074;28;20251;-81
2023/06/29 07:11:09;;;;;;;7.57;4.97;;;;;;;21.01;74.67;100904.06;5058865;28;20209;-81
2023/06/29 07:13:35;;;;;;;6.10;5.33;;;;;;;21.16;76.62;100857.19;5055433;28;20232;-82
2023/06/29 07:16:01;;;;;;;5.97;5.37;;;;;;;21.26;76.63;100836.28;5055434;28;20210;-80
2023/06/29 07:18:30;;;;;;;6.13;5.27;;;;;;;21.20;74.67;100877.31;5056385;28;20299;-80
2023/06/29 07:20:57;;;;;;;8.40;4.90;;;;;;;21.14;75.99;100858.22;5052136;28;20213;-79
2023/06/29 07:23:23;;;;;;;6.10;4.87;;;;;;;21.25;75.28;100860.25;5051380;28;20279;-77
2023/06/29 07:25:51;;;;;;;7.50;5.10;;;;;;;21.36;74.87;100860.53;5050833;28;20229;-80
2023/06/29 07:28:17;;;;;;;6.37;5.53;;;;;;;21.46;75.41;100856.41;5043265;28;20265;-79
2023/06/29 07:30:43;;;;;;;7.03;6.20;;;;;;;21.35;72.89;100931.38;5051451;28;20941;-79
2023/06/29 07:33:10;;;;;;;7.57;4.90;;;;;;;21.25;73.56;100916.03;5050085;28;20228;-79
2023/06/29 07:35:36;;;;;;;7.33;5.33;;;;;;;21.46;74.06;100896.25;5050830;28;20799;-79
2023/06/29 07:38:02;;;;;;;6.93;5.30;;;;;;;21.61;74.55;100871.47;5051097;28;20722;-79
2023/06/29 07:40:29;;;;;;;6.93;5.53;;;;;;;21.59;73.13;100901.75;5050909;28;20680;-79
2023/06/29 07:42:56;;;;;;;7.63;6.10;;;;;;;21.68;73.38;100901.19;5051213;28;20749;-79
2023/06/29 07:45:23;;;;;;;5.73;5.10;;;;;;;21.68;73.23;100893.22;5046146;28;20230;-78
2023/06/29 07:47:49;;;;;;;6.93;5.60;;;;;;;21.83;73.45;100895.94;5046879;28;20240;-79
2023/06/29 07:50:15;;;;;;;9.60;5.57;;;;;;;21.88;72.86;100900.00;5043030;28;20521;-79
2023/06/29 07:52:42;;;;;;;6.00;5.40;;;;;;;21.83;72.71;100907.41;5052229;28;20287;-79
2023/06/29 07:55:09;;;;;;;7.67;6.80;;;;;;;21.66;71.52;100920.81;5050576;28;20217;-79
2023/06/29 07:57:36;;;;;;;6.53;5.90;;;;;;;21.54;72.29;100907.28;5049440;28;20271;-79
2023/06/29 08:00:06;;;;;;;5.83;5.30;;;;;;;21.71;73.43;100886.88;5050631;28;20219;-78
2023/06/29 08:02:32;;;;;;;7.03;5.87;;;;;;;21.65;74.05;100872.16;5050213;28;20263;-78
2023/06/29 08:04:59;;;;;;;6.63;5.83;;;;;;;21.82;73.29;100865.81;5041839;28;20265;-78
2023/06/29 08:07:25;;;;;;;7.17;5.60;;;;;;;21.91;73.12;100877.75;5050031;28;20253;-78
2023/06/29 08:09:52;;;;;;;5.57;5.07;;;;;;;21.96;71.78;100899.56;5050474;28;20212;-79
2023/06/29 08:12:18;;;;;;;6.27;5.67;;;;;;;22.00;71.74;100925.03;5050227;28;20202;-78
2023/06/29 08:14:45;;;;;;;5.97;5.37;;;;;;;22.11;71.73;100914.63;5041782;28;20237;-79
2023/06/29 08:17:12;;;;;;;6.37;5.20;;;;;;;22.20;72.26;100908.75;5050038;28;20252;-78
2023/06/29 08:19:39;;;;;;;6.17;5.53;;;;;;;22.12;71.84;100902.16;5050397;28;20206;-79
2023/06/29 08:22:05;;;;;;;6.33;5.83;;;;;;;21.99;72.76;100886.94;5051222;28;20213;-81
2023/06/29 08:24:31;;;;;;;5.70;5.20;;;;;;;22.05;72.32;100891.06;5051890;28;20700;-79
2023/06/29 08:26:59;;;;;;;6.03;5.17;;;;;;;22.20;72.82;100870.69;5052232;28;20271;-79
2023/06/29 08:29:25;;;;;;;5.67;5.17;;;;;;;21.99;71.04;100910.88;5051459;28;20259;-79
2023/06/29 08:31:51;;;;;;;5.63;5.23;;;;;;;21.72;72.38;100908.03;5050653;28;20240;-78
2023/06/29 08:34:19;;;;;;;6.53;5.93;;;;;;;22.00;72.54;100869.19;5050764;28;20198;-79
2023/06/29 08:36:45;;;;;;;5.47;5.03;;;;;;;22.18;72.96;100867.25;5050020;28;20205;-79
2023/06/29 08:39:12;;;;;;;6.13;5.50;;;;;;;22.28;73.03;100860.44;5050209;28;20237;-79
2023/06/29 08:41:38;;;;;;;5.03;4.63;;;;;;;22.44;72.23;100875.44;5049956;28;20271;-79
2023/06/29 08:44:06;;;;;;;5.93;5.30;;;;;;;22.43;70.58;100911.84;5049651;28;20265;-79
2023/06/29 08:46:33;;;;;;;5.57;5.07;;;;;;;22.64;70.31;100933.63;5049112;28;20634;-78
2023/06/29 08:49:01;;;;;;;7.90;5.53;;;;;;;22.69;70.45;100936.84;5049533;28;20244;-80
2023/06/29 08:51:29;;;;;;;4.50;4.13;;;;;;;22.78;68.90;100975.38;5049965;28;20233;-79
2023/06/29 08:53:56;;;;;;;5.20;4.70;;;;;;;22.74;69.67;100966.72;5049725;28;20212;-79
2023/06/29 08:56:24;;;;;;;5.77;5.33;;;;;;;22.63;69.33;100973.63;5046303;28;20242;-79
2023/06/29 08:58:51;;;;;;;7.73;5.70;;;;;;;22.59;68.91;100971.16;5046967;28;20229;-79
2023/06/29 09:01:17;;;;;;;5.27;4.87;;;;;;;22.46;70.33;100964.00;5046208;28;20234;-79
2023/06/29 09:03:44;;;;;;;4.70;4.40;;;;;;;22.37;71.19;100925.53;5044738;28;20225;-79
2023/06/29 09:06:11;;;;;;;5.80;5.33;;;;;;;22.17;72.03;100902.75;5040950;28;20271;-79
2023/06/29 09:08:38;;;;;;;5.23;4.70;;;;;;;22.37;72.48;100854.53;5049037;28;20217;-79
2023/06/29 09:11:05;;;;;;;5.47;4.97;;;;;;;22.39;70.84;100881.06;5049341;28;20221;-78
2023/06/29 09:13:33;;;;;;;5.80;5.40;;;;;;;22.17;72.21;100874.34;5048946;28;20201;-79
2023/06/29 09:16:00;;;;;;;5.63;5.13;;;;;;;22.13;71.58;100854.22;5048566;28;20267;-79
2023/06/29 09:18:28;;;;;;;5.93;5.40;;;;;;;22.20;73.04;100844.94;5041855;28;20314;-79
2023/06/29 09:20:55;;;;;;;6.33;5.50;;;;;;;21.94;72.38;100830.56;5049009;28;20760;-79
2023/06/29 09:23:21;;;;;;;7.33;5.53;;;;;;;21.89;72.89;100815.84;5048966;28;20242;-79
2023/06/29 09:25:50;;;;;;;5.87;5.37;;;;;;;21.79;73.25;100823.50;5048617;28;20236;-79
2023/06/29 09:28:18;;;;;;;5.77;5.27;;;;;;;22.03;74.32;100786.59;5048537;28;20236;-78
2023/06/29 09:30:44;;;;;;;6.27;5.63;;;;;;;22.25;73.37;100798.63;5049328;28;20208;-79
2023/06/29 09:33:12;;;;;;;5.70;5.07;;;;;;;22.31;72.88;100825.66;5041295;28;20209;-79
2023/06/29 09:35:41;;;;;;;5.60;5.20;;;;;;;21.99;72.73;100824.97;5048500;28;20201;-79
2023/06/29 09:38:07;;;;;;;5.30;4.80;;;;;;;21.98;73.21;100817.91;5048290;28;20304;-79
2023/06/29 09:40:46;;;;;;;5.40;4.90;;;;;;;22.15;72.92;100809.78;5048567;28;20580;-79
2023/06/29 09:43:17;;;;;;;5.07;4.63;;;;;;;22.31;71.81;100832.81;5048871;28;20241;-79
2023/06/29 09:45:44;;;;;;;5.30;4.80;;;;;;;22.41;71.48;100868.53;5048525;28;20205;-79
2023/06/29 09:48:12;;;;;;;5.20;4.70;;;;;;;22.62;71.04;100887.63;5048508;28;20233;-79
2023/06/29 09:50:38;;;;;;;5.50;4.83;;;;;;;22.56;70.55;100885.34;5042669;28;20206;-79
2023/06/29 09:53:08;;;;;;;4.93;4.53;;;;;;;22.53;70.87;100893.50;5046151;28;20287;-79
2023/06/29 09:55:37;;;;;;;5.43;4.93;;;;;;;22.32;70.00;100890.34;5048429;28;20210;-79
2023/06/29 09:58:04;;;;;;;5.23;4.83;;;;;;;22.48;71.89;100877.00;5048182;28;20248;-79
2023/06/29 10:00:32;;;;;;;5.00;4.50;;;;;;;22.59;70.89;100895.78;5048256;28;20299;-79
2023/06/29 10:02:58;;;;;;;4.97;4.67;;;;;;;22.32;71.68;100887.69;5048695;28;20197;-79
2023/06/29 10:05:24;;;;;;;5.30;4.80;;;;;;;22.32;70.85;100879.72;5047864;28;20233;-79
2023/06/29 10:07:53;;;;;;;5.23;4.83;;;;;;;22.40;71.32;100886.28;5048481;28;20225;-79
2023/06/29 10:10:23;;;;;;;5.30;5.00;;;;;;;22.41;70.15;100892.47;5048362;28;20217;-79
2023/06/29 10:12:54;;;;;;;5.40;4.97;;;;;;;22.60;70.94;100887.72;5048586;28;20211;-79
2023/06/29 10:15:22;;;;;;;5.93;5.33;;;;;;;22.73;70.47;100886.94;5045173;28;20587;-79
2023/06/29 10:18:00;;;;;;;8.70;4.90;;;;;;;22.80;71.00;100874.97;5043630;28;20217;-79
2023/06/29 10:20:29;;;;;;;5.47;5.00;;;;;;;22.85;69.67;100893.31;5048463;28;20202;-79
2023/06/29 10:23:00;;;;;;;8.17;5.47;;;;;;;22.54;69.58;100917.38;5052457;28;20264;-79
2023/06/29 10:25:28;;;;;;;6.23;5.63;;;;;;;22.65;71.31;100870.59;5051983;28;20229;-79
2023/06/29 10:27:55;;;;;;;6.20;5.57;;;;;;;22.77;71.91;100837.88;5052072;28;20260;-79
2023/06/29 10:30:21;;;;;;;5.80;5.40;;;;;;;22.31;70.85;100864.72;5051769;28;20632;-79
2023/06/29 10:32:50;;;;;;;6.10;5.60;;;;;;;22.34;71.55;100825.50;5052336;28;20201;-79
2023/06/29 10:35:18;;;;;;;5.80;5.20;;;;;;;22.53;71.84;100824.34;5051553;28;20235;-80
2023/06/29 10:37:46;;;;;;;5.73;5.13;;;;;;;22.72;71.09;100835.53;5051927;28;20249;-79
2023/06/29 10:40:14;;;;;;;5.63;5.03;;;;;;;22.56;70.12;100877.38;5052287;28;20663;-79
2023/06/29 10:42:52;;;;;;;5.63;5.13;;;;;;;22.65;70.55;100851.97;5044107;28;20623;-79
2023/06/29 10:45:32;;;;;;;6.23;5.70;;;;;;;22.48;71.90;100814.00;5051799;28;20241;-80
2023/06/29 10:48:06;;;;;;;5.50;5.10;;;;;;;22.51;71.82;100803.13;5043906;28;20221;-80
2023/06/29 10:50:37;;;;;;;5.33;4.93;;;;;;;22.68;71.95;100838.50;5051645;28;20575;-79
2023/06/29 10:53:05;;;;;;;5.90;5.40;;;;;;;22.85;71.16;100816.94;5051207;28;20205;-79
2023/06/29 10:55:40;;;;;;;6.17;5.67;;;;;;;22.94;70.58;100834.16;5043714;28;20297;-80
2023/06/29 10:58:14;;;;;;;6.20;5.63;;;;;;;22.88;68.20;100901.97;5050562;28;20225;-79
2023/06/29 11:00:41;;;;;;;5.77;5.37;;;;;;;22.85;69.00;100912.78;5040045;28;20208;-78
2023/06/29 11:03:10;;;;;;;5.37;4.97;;;;;;;22.96;69.97;100888.16;5051650;28;20237;-79
2023/06/29 11:05:38;;;;;;;5.13;4.77;;;;;;;22.90;69.41;100886.75;5051612;28;20257;-78
2023/06/29 11:08:06;;;;;;;5.77;5.27;;;;;;;23.04;70.16;100869.91;5051828;28;20232;-80
2023/06/29 11:10:33;;;;;;;6.53;5.60;;;;;;;23.18;70.89;100850.38;5053690;28;20316;-79
2023/06/29 11:12:59;;;;;;;6.80;6.20;;;;;;;23.19;68.97;100866.28;5052716;28;20595;-80
2023/06/29 11:15:27;;;;;;;8.83;7.90;;;;;;;23.07;68.33;100906.13;5052988;28;20270;-80
2023/06/29 11:17:54;;;;;;;8.13;7.53;;;;;;;22.88;70.59;100870.00;5052598;28;20806;-79
2023/06/29 11:20:22;;;;;;;11.60;8.77;;;;;;;22.81;69.98;100852.72;5052246;28;20215;-79
2023/06/29 11:22:57;;;;;;;9.30;8.37;;;;;;;22.80;69.53;100849.19;5054384;28;20283;-79
2023/06/29 11:25:24;;;;;;;8.10;7.40;;;;;;;23.10;70.42;100842.03;5055443;28;20821;-80